Sanctuary — WDF6190 — position and weather

sailwx.info

Track history (hours):
 
Tides and Currents Weather Stations Pressure Air Temp Water Temp Dewpoint Dewpoint Depression Visibility Wind Speed Wind Dir Waves Ship Positions

Sanctuary

Owner: Dutton, Stephen G, LEWISTON, CA. More information available from US FCC via Universal Licensing System and Coast Guard Vessel Documentation Center.

Last reported at 2015-May-11 17:10 UTC. Time now 2015-May-23 04:14 UTC.
Position N 48°33' W 122°55'.
Warning: this ship's position is 11 days out of date.

Length 15 m.

Type: Pleasure craft. MMSI: 367470740.

Date/timePositionNaut miles runAvg speedWind from/ knotsBaromVisibWave heightAir tempDewpointWater temp
2015-May-11 17:10N 48°33' W 122°55'2 3.4
2015-May-11 16:31N 48°31' W 122°55'0 0.0
2015-May-11 15:30N 48°31' W 122°55'0 0.0
2015-May-11 14:30N 48°31' W 122°55'0 0.0
2015-May-11 13:30N 48°31' W 122°55'0 0.0
2015-May-11 12:26N 48°31' W 122°55'0 0.0
2015-May-11 11:32N 48°31' W 122°55'0 0.0
2015-May-11 10:32N 48°31' W 122°55'0 0.0
2015-May-11 09:32N 48°31' W 122°55'0 0.0
2015-May-11 08:32N 48°31' W 122°55'0 0.0
2015-May-11 07:32N 48°31' W 122°55'0 0.0
2015-May-11 06:32N 48°31' W 122°55'0 0.0
2015-May-11 05:32N 48°31' W 122°55'0 0.0
2015-May-11 04:29N 48°31' W 122°55'0 0.0
2015-May-11 03:32N 48°31' W 122°55'0 0.0
2015-May-11 02:32N 48°31' W 122°55'0 0.0
2015-May-11 01:26N 48°31' W 122°55'0 0.0
2015-May-11 00:32N 48°31' W 122°55'0 0.0
2015-May-10 23:32N 48°31' W 122°55'0 0.0
2015-May-10 22:32N 48°31' W 122°55'0 0.0
2015-May-10 21:32N 48°31' W 122°55'0 0.0
2015-May-10 20:32N 48°31' W 122°55'0 0.0
2015-May-10 19:32N 48°31' W 122°55'0 0.0
2015-May-10 18:32N 48°31' W 122°55'0 0.0
2015-May-10 17:32N 48°31' W 122°55'1 0.6
2015-May-10 16:33N 48°31' W 122°55'4 1.3
2015-May-10 13:31N 48°32' W 123°01'0 0.0
2015-May-10 11:13N 48°32' W 123°01'0 0.0
2015-May-10 10:31N 48°32' W 123°01'0 0.0
2015-May-10 09:28N 48°32' W 123°01'0 0.0
2015-May-10 08:28N 48°32' W 123°01'0 0.0
2015-May-10 07:31N 48°32' W 123°01'0 0.0
2015-May-10 06:13N 48°32' W 123°01'0 0.0
2015-May-10 05:31N 48°32' W 123°01'0 0.0
2015-May-10 04:22N 48°32' W 123°01'0 0.0
2015-May-09 21:33N 48°32' W 123°01'  
2015-May-06 17:21N 48°35' W 122°53'  
Track history (hours):
 
Tides and Currents Weather Stations Pressure Air Temp Water Temp Dewpoint Dewpoint Depression Visibility Wind Speed Wind Dir Waves Ship Positions

Sanctuary

Owner: Dutton, Stephen G, LEWISTON, CA. More information available from US FCC via Universal Licensing System and Coast Guard Vessel Documentation Center.

Last reported at 2015-May-11 17:10 UTC. Time now 2015-May-23 04:14 UTC.
Position N 48°33' W 122°55'.
Warning: this ship's position is 11 days out of date.

Length 15 m.

Type: Pleasure craft. MMSI: 367470740.

Date/timePositionNaut miles runAvg speedWind from/ knotsBaromVisibWave heightAir tempDewpointWater temp
2015-May-11 17:10N 48°33' W 122°55'2 3.4
2015-May-11 16:31N 48°31' W 122°55'0 0.0
2015-May-11 15:30N 48°31' W 122°55'0 0.0
2015-May-11 14:30N 48°31' W 122°55'0 0.0
2015-May-11 13:30N 48°31' W 122°55'0 0.0
2015-May-11 12:26N 48°31' W 122°55'0 0.0
2015-May-11 11:32N 48°31' W 122°55'0 0.0
2015-May-11 10:32N 48°31' W 122°55'0 0.0
2015-May-11 09:32N 48°31' W 122°55'0 0.0
2015-May-11 08:32N 48°31' W 122°55'0 0.0
2015-May-11 07:32N 48°31' W 122°55'0 0.0
2015-May-11 06:32N 48°31' W 122°55'0 0.0
2015-May-11 05:32N 48°31' W 122°55'0 0.0
2015-May-11 04:29N 48°31' W 122°55'0 0.0
2015-May-11 03:32N 48°31' W 122°55'0 0.0
2015-May-11 02:32N 48°31' W 122°55'0 0.0
2015-May-11 01:26N 48°31' W 122°55'0 0.0
2015-May-11 00:32N 48°31' W 122°55'0 0.0
2015-May-10 23:32N 48°31' W 122°55'0 0.0
2015-May-10 22:32N 48°31' W 122°55'0 0.0
2015-May-10 21:32N 48°31' W 122°55'0 0.0
2015-May-10 20:32N 48°31' W 122°55'0 0.0
2015-May-10 19:32N 48°31' W 122°55'0 0.0
2015-May-10 18:32N 48°31' W 122°55'0 0.0
2015-May-10 17:32N 48°31' W 122°55'1 0.6
2015-May-10 16:33N 48°31' W 122°55'4 1.3
2015-May-10 13:31N 48°32' W 123°01'0 0.0
2015-May-10 11:13N 48°32' W 123°01'0 0.0
2015-May-10 10:31N 48°32' W 123°01'0 0.0
2015-May-10 09:28N 48°32' W 123°01'0 0.0
2015-May-10 08:28N 48°32' W 123°01'0 0.0
2015-May-10 07:31N 48°32' W 123°01'0 0.0
2015-May-10 06:13N 48°32' W 123°01'0 0.0
2015-May-10 05:31N 48°32' W 123°01'0 0.0
2015-May-10 04:22N 48°32' W 123°01'0 0.0
2015-May-09 21:33N 48°32' W 123°01'  
2015-May-06 17:21N 48°35' W 122°53'  

Dump ship's entire track history